Flight Track Log - Related Links

Times and Time Zones

All times are in EDT time to prevent confusion due to time zone crossing. See the N229CN flight status page for this flight to view local times or setup timezone preferences in your user account.

Time Position Orientation Groundspeed Altitude Reporting Facility
EDT Latitude Longitude Course Direction KTS MPH feet Rate Location/Type
Sun 10:04:40 AM 44.3697 -73.1342 196° South 206 237 6,000  Level Boston Center
Sun 10:05:40 AM 44.3111 -73.1539 194° South 211 243 9,000 2,550 Climbing Boston Center
Sun 10:06:40 AM 44.2444 -73.1819 197° South 238 274 11,100 2,150 Climbing Boston Center
Sun 10:07:40 AM 44.1753 -73.2128 198° South 263 303 13,300 2,150 Climbing Boston Center
Sun 10:08:40 AM 44.1003 -73.2439 197° South 274 315 15,400 2,050 Climbing Boston Center
Sun 10:09:00 AM 43.8568 -73.3740 196° South  Level FlightAware Approximate
Sun 10:09:40 AM 44.0250 -73.2744 196° South 285 328 17,400  Level Boston Center
Sun 10:10:00 AM 43.7556 -73.4146 196° South  Level FlightAware Approximate
Sun 10:10:40 AM 43.9456 -73.3108 198° South 290 334 18,600  Level Boston Center
Sun 10:11:40 AM 43.8619 -73.3442 196° South 296 341 20,200 1,600 Climbing Boston Center
Sun 10:12:40 AM 43.7803 -73.3803 198° South 307 353 21,800 1,550 Climbing Boston Center
Sun 10:13:40 AM 43.6903 -73.4164 196° South 319 367 23,300 1,650 Climbing Boston Center
Sun 10:14:40 AM 43.6047 -73.4522 197° South 325 374 25,100 1,550 Climbing Boston Center
Sun 10:15:40 AM 43.5147 -73.4850 195° South 325 374 26,400 1,300 Climbing Boston Center
Sun 10:16:40 AM 43.4247 -73.5236 197° South 330 380 27,700 1,250 Climbing Boston Center
Sun 10:17:40 AM 43.3286 -73.5647 197° South 346 398 28,900 1,050 Climbing Boston Center
Sun 10:18:40 AM 43.2322 -73.6056 197° South 357 411 29,800 950 Climbing Boston Center
Sun 10:19:40 AM 43.1528 -73.6353 195° South 367 422 30,800 1,100 Climbing Boston Center
Sun 10:20:40 AM 43.0417 -73.6814 197° South 374 430 32,000 1,250 Climbing Boston Center
Sun 10:21:40 AM 42.9414 -73.7250 198° South 379 436 33,300 1,350 Climbing Boston Center
Sun 10:22:40 AM 42.8428 -73.7653 197° South 379 436 34,700 1,300 Climbing Boston Center
Sun 10:23:40 AM 42.7444 -73.8056 197° South 379 436 35,900 1,300 Climbing Boston Center
Sun 10:24:40 AM 42.6481 -73.8431 196° South 379 436 37,300 1,300 Climbing Boston Center
Sun 10:25:40 AM 42.5558 -73.8889 200° South 373 429 38,500 1,100 Climbing Boston Center
Sun 10:26:40 AM 42.4572 -73.9258 195° South 368 423 39,500 1,100 Climbing Boston Center
Sun 10:27:40 AM 42.3631 -73.9631 196° South 363 418 40,700 900 Climbing Boston Center
Sun 10:28:40 AM 42.2689 -74.0000 196° South 363 418 41,300 650 Climbing Boston Center
Sun 10:29:40 AM 42.1725 -74.0369 196° South 363 418 42,000 800 Climbing Boston Center
Sun 10:30:40 AM 42.0656 -74.0789 196° South 368 423 42,900 328 Climbing Boston Center
Sun 10:32:43 AM 41.8586 -74.1575 196° South 378 435 43,000 33 Climbing New York Center
Sun 10:33:44 AM 41.7533 -74.1967 196° South 390 449 43,000  Level New York Center
Sun 10:34:44 AM 41.6417 -74.2408 196° South 404 465 43,000  Level New York Center
Sun 10:35:42 AM 41.5383 -74.2797 196° South 404 465 43,000  Level New York Center
Sun 10:36:43 AM 41.4225 -74.3236 196° South 412 474 43,000  Level New York Center
Sun 10:37:43 AM 41.3067 -74.3697 197° South 424 488 43,000  Level New York Center
Sun 10:38:43 AM 41.1931 -74.4106 195° South 431 496 43,000  Level New York Center
Sun 10:39:44 AM 41.0814 -74.4514 195° South 426 490 43,000  Level New York Center
Sun 10:40:43 AM 40.9717 -74.4922 196° South 421 484 43,000  Level New York Center
Sun 10:41:43 AM 40.8597 -74.5381 197° South 426 490 43,000  Level New York Center
Sun 10:42:44 AM 40.7483 -74.5758 194° South 426 490 43,000  Level New York Center
Sun 10:43:45 AM 40.6344 -74.6186 196° South 426 490 43,000  Level New York Center
Sun 10:44:42 AM 40.5225 -74.6614 196° South 426 490 43,000  Level New York Center
Sun 10:47:31 AM 40.2189 -74.7736 196° South 426 490 43,000  Level Washington Center
Sun 10:48:32 AM 40.0922 -74.8239 197° South 426 490 43,000  Level Washington Center
Sun 10:49:33 AM 39.9800 -74.8631 195° South 426 490 43,000  Level Washington Center
Sun 10:50:33 AM 39.8658 -74.9050 196° South 426 490 43,000  Level Washington Center
Sun 10:51:31 AM 39.7514 -74.9464 196° South 431 496 43,000  Level Washington Center
Sun 10:52:31 AM 39.6308 -74.9933 197° South 442 509 43,000  Level Washington Center
Sun 10:53:32 AM 39.5206 -75.0347 196° South 437 503 43,000  Level Washington Center
Sun 10:54:33 AM 39.4081 -75.0731 195° South 431 496 43,000  Level Washington Center
Sun 10:55:33 AM 39.2958 -75.1169 197° South 426 490 43,000  Level Washington Center
Sun 10:56:31 AM 39.1878 -75.1844 206° Southwest 426 490 43,000  Level Washington Center
Sun 10:57:31 AM 39.0775 -75.2467 204° Southwest 431 496 43,000  Level Washington Center
Sun 10:58:31 AM 38.9714 -75.3114 205° Southwest 436 502 43,000  Level Washington Center
Sun 10:59:33 AM 38.8631 -75.3756 205° Southwest 436 502 43,000  Level Washington Center
Sun 11:00:33 AM 38.7547 -75.4400 205° Southwest 436 502 43,000  Level Washington Center
Sun 11:01:32 AM 38.6486 -75.5039 205° Southwest 431 496 43,000  Level Washington Center
Sun 11:02:32 AM 38.5422 -75.5678 205° Southwest 431 496 43,000  Level Washington Center
Sun 11:03:32 AM 38.4317 -75.6208 201° Southwest 426 490 43,000  Level Washington Center
Sun 11:04:33 AM 38.3211 -75.6711 200° South 426 490 43,000  Level Washington Center
Sun 11:05:31 AM 38.2211 -75.7158 199° South 421 484 43,000  Level Washington Center
Sun 11:06:31 AM 38.1064 -75.7686 200° South 427 491 43,000  Level Washington Center
Sun 11:07:32 AM 37.9831 -75.8261 200° South 432 497 43,000  Level Washington Center
Sun 11:08:33 AM 37.8683 -75.8786 200° South 432 497 43,000  Level Washington Center
Sun 11:09:33 AM 37.7744 -75.9281 203° Southwest 423 487 43,000  Level Washington Center
Sun 11:10:31 AM 37.6594 -75.9828 201° Southwest 423 487 43,000  Level Washington Center
Sun 11:11:32 AM 37.5467 -76.0344 200° South 434 499 43,000  Level Washington Center
Sun 11:12:32 AM 37.4317 -76.0861 200° South 434 499 43,000  Level Washington Center
Sun 11:13:33 AM 37.3189 -76.1350 199° South 434 499 43,000  Level Washington Center
Sun 11:14:30 AM 37.1872 -76.1864 197° South 445 512 43,000  Level Washington Center
Sun 11:15:31 AM 37.0703 -76.2375 199° South 445 512 43,000  Level Washington Center
Sun 11:16:31 AM 36.9572 -76.2911 201° Southwest 445 512 43,000  Level Washington Center
Sun 11:17:32 AM 36.8400 -76.3419 199° South 450 518 43,000  Level Washington Center
Sun 11:18:32 AM 36.7272 -76.3953 201° Southwest 450 518 43,000  Level Washington Center
Sun 11:19:32 AM 36.6244 -76.4486 203° Southwest 450 518 43,000  Level Washington Center
Sun 11:20:33 AM 36.5072 -76.4989 199° South 450 518 43,000  Level Washington Center
Sun 11:21:33 AM 36.3942 -76.5467 199° South 450 518 43,000  Level Washington Center
Sun 11:22:32 AM 36.2644 -76.6019 199° South 450 518 43,000  Level Washington Center
Sun 11:23:32 AM 36.1492 -76.6517 199° South 450 518 43,000  Level Washington Center
Sun 11:24:33 AM 36.0342 -76.7017 199° South 450 518 43,000  Level Washington Center
Sun 11:25:31 AM 35.9167 -76.7539 200° South 450 518 43,000  Level Washington Center
Sun 11:26:32 AM 35.8014 -76.8033 199° South 450 518 43,000  Level Washington Center
Sun 11:27:33 AM 35.6883 -76.8503 199° South 450 518 43,000  Level Washington Center
Sun 11:28:31 AM 35.5897 -76.8972 201° Southwest 444 511 43,000  Level Washington Center
Sun 11:29:31 AM 35.4744 -76.9464 199° South 439 505 43,000  Level Washington Center
Sun 11:30:32 AM 35.3592 -76.9953 199° South 433 498 43,000  Level Washington Center
Sun 11:31:32 AM 35.2439 -77.0417 198° South 433 498 43,000  Level Washington Center
Sun 11:32:33 AM 35.1264 -77.0928 200° South 443 510 43,000  Level Washington Center
Sun 11:33:33 AM 35.0153 -77.1417 200° South 443 510 43,000  Level Washington Center
Sun 11:34:33 AM 34.8956 -77.1925 199° South 443 510 43,000  Level Washington Center
Sun 11:35:32 AM 34.7842 -77.2458 201° Southwest 443 510 43,000  Level Washington Center
Sun 11:36:32 AM 34.6689 -77.2917 198° South 443 510 43,000  Level Washington Center
Sun 11:37:31 AM 34.5556 -77.3397 199° South 437 503 43,000  Level Washington Center
Sun 11:38:31 AM 34.4442 -77.3850 199° South 437 503 43,000  Level Washington Center
Sun 11:39:31 AM 34.3331 -77.4306 199° South 431 496 43,000  Level Washington Center
Sun 11:40:32 AM 34.2175 -77.4806 200° South 431 496 43,000  Level Washington Center
Sun 11:41:13 AM 34.1081 -77.5206 197° South 434 499 43,000  Level Jacksonville Center
Sun 11:42:13 AM 34.0056 -77.5644 200° South 419 482 43,000  Level Jacksonville Center
Sun 11:43:13 AM 33.8908 -77.6164 201° Southwest 424 488 43,000  Level Jacksonville Center
Sun 11:44:13 AM 33.7800 -77.6581 197° South 424 488 43,000  Level Jacksonville Center
Sun 11:45:13 AM 33.6653 -77.7075 200° South 429 494 43,000  Level Jacksonville Center
Sun 11:46:13 AM 33.5503 -77.7539 199° South 435 501 43,000  Level Jacksonville Center
Sun 11:47:13 AM 33.4414 -77.8000 199° South 435 501 43,000  Level Jacksonville Center
Sun 11:48:13 AM 33.3286 -77.8464 199° South 435 501 43,000  Level Jacksonville Center
Sun 11:49:13 AM 33.2156 -77.8900 198° South 435 501 43,000  Level Jacksonville Center
Sun 11:50:13 AM 33.1067 -77.9358 199° South 429 494 43,000  Level Jacksonville Center
Sun 11:51:13 AM 32.9958 -77.9789 198° South 424 488 43,000  Level Jacksonville Center
Sun 11:52:13 AM 32.8869 -78.0244 199° South 417 480 43,000  Level Jacksonville Center
Sun 11:53:13 AM 32.7800 -78.0675 199° South 417 480 43,000  Level Jacksonville Center
Sun 11:54:13 AM 32.6692 -78.1153 200° South 417 480 43,000  Level Jacksonville Center
Sun 11:55:13 AM 32.5600 -78.1556 197° South 417 480 43,000  Level Jacksonville Center
Sun 11:56:13 AM 32.4508 -78.1956 197° South 417 480 43,000  Level Jacksonville Center
Sun 11:57:13 AM 32.3647 -78.2319 200° South 417 480 43,000  Level Jacksonville Center
Sun 11:58:13 AM 32.2433 -78.2850 200° South 417 480 43,000  Level Jacksonville Center
Sun 11:59:13 AM 32.1364 -78.3269 198° South 417 480 43,000  Level Jacksonville Center
Sun 12:00:14 PM 32.0272 -78.3692 198° South 418 481 43,000  Level Jacksonville Center
Sun 12:01:13 PM 31.9164 -78.4164 200° South 423 487 43,000  Level Jacksonville Center
Sun 12:02:13 PM 31.8092 -78.4558 197° South 418 481 43,000  Level Jacksonville Center
Sun 12:03:13 PM 31.6878 -78.5056 199° South 423 487 43,000  Level Jacksonville Center
Sun 12:04:13 PM 31.5786 -78.5472 198° South 417 480 43,000  Level Jacksonville Center
Sun 12:05:13 PM 31.4714 -78.5886 198° South 417 480 43,000  Level Jacksonville Center
Sun 12:06:13 PM 31.3581 -78.6353 199° South 417 480 43,000  Level Jacksonville Center
Sun 12:07:13 PM 31.2508 -78.6767 198° South 417 480 43,000  Level Jacksonville Center
Sun 12:08:13 PM 31.1417 -78.7203 199° South 417 480 43,000  Level Jacksonville Center
Sun 12:09:13 PM 31.0325 -78.7592 197° South 417 480 43,000  Level Jacksonville Center
Sun 12:10:13 PM 30.9253 -78.8025 199° South 417 480 43,000  Level Jacksonville Center
Sun 12:11:13 PM 30.8158 -78.8411 197° South 417 480 43,000  Level Jacksonville Center
Sun 12:12:13 PM 30.7044 -78.8844 198° South 417 480 43,000  Level Jacksonville Center
Sun 12:13:18 PM 30.5947 -78.9297 200° South 418 481 43,000  Level Miami Center
Sun 12:14:18 PM 30.4772 -78.9708 197° South 425 489 43,000  Level Miami Center
Sun 12:15:18 PM 30.3744 -79.0217 203° Southwest 425 489 43,000  Level Miami Center
Sun 12:16:18 PM 30.2631 -79.0794 204° Southwest 425 489 43,000  Level Miami Center
Sun 12:17:18 PM 30.1600 -79.1325 204° Southwest 425 489 43,000  Level Miami Center
Sun 12:18:18 PM 30.0508 -79.1875 204° Southwest 425 489 43,000  Level Miami Center
Sun 12:19:18 PM 29.9497 -79.2500 208° Southwest 420 483 43,000  Level Miami Center
Sun 12:20:18 PM 29.8425 -79.3028 203° Southwest 420 483 43,000  Level Miami Center
Sun 12:21:18 PM 29.7392 -79.3600 206° Southwest 420 483 43,000  Level Miami Center
Sun 12:22:18 PM 29.6319 -79.4125 203° Southwest 420 483 43,000  Level Miami Center
Sun 12:23:18 PM 29.5206 -79.4647 202° Southwest 425 489 43,000  Level Miami Center
Sun 12:24:18 PM 29.4131 -79.5169 203° Southwest 425 489 43,000  Level Miami Center
Sun 12:25:18 PM 29.3078 -79.5692 203° Southwest 419 482 43,000  Level Miami Center
Sun 12:26:18 PM 29.2025 -79.6214 203° Southwest 419 482 43,000  Level Miami Center
Sun 12:27:18 PM 29.0953 -79.6731 203° Southwest 419 482 43,000  Level Miami Center
Sun 12:28:18 PM 28.9878 -79.7250 203° Southwest 419 482 43,000  Level Miami Center
Sun 12:29:18 PM 28.8803 -79.7792 204° Southwest 419 482 43,000  Level Miami Center
Sun 12:30:18 PM 28.7728 -79.8308 203° Southwest 419 482 43,000  Level Miami Center
Sun 12:31:18 PM 28.6675 -79.8822 203° Southwest 419 482 43,000  Level Miami Center
Sun 12:32:18 PM 28.5619 -79.9314 202° Southwest 419 482 43,000  Level Miami Center
Sun 12:33:18 PM 28.4672 -79.9786 204° Southwest 419 482 43,000  Level Miami Center
Sun 12:34:18 PM 28.3617 -80.0275 202° Southwest 419 482 43,000  Level Miami Center
Sun 12:35:18 PM 28.2436 -80.0878 204° Southwest 419 482 43,000  Level Miami Center
Sun 12:36:18 PM 28.1381 -80.1389 203° Southwest 419 482 43,000  Level Miami Center
Sun 12:37:18 PM 28.0303 -80.1900 203° Southwest 419 482 43,000  Level Miami Center
Sun 12:38:18 PM 27.9353 -80.2364 203° Southwest 419 482 43,000  Level Miami Center
Sun 12:39:18 PM 27.8256 -80.2847 201° Southwest 419 482 43,000  Level Miami Center
Sun 12:40:18 PM 27.7222 -80.3358 204° Southwest 419 482 43,000  Level Miami Center
Sun 12:41:18 PM 27.6164 -80.3864 203° Southwest 419 482 43,000  Level Miami Center
Sun 12:42:18 PM 27.5150 -80.4347 203° Southwest 419 482 43,000  Level Miami Center
Sun 12:43:18 PM 27.4136 -80.4831 203° Southwest 407 468 43,000  Level Miami Center
Sun 12:44:18 PM 27.3122 -80.5336 204° Southwest 402 463 43,000 -650 Level Miami Center
Sun 12:45:18 PM 27.2108 -80.5794 202° Southwest 402 463 41,700 -1,400 Descending Miami Center
Sun 12:46:18 PM 27.1136 -80.6300 205° Southwest 402 463 40,200 -1,350 Descending Miami Center
Sun 12:47:18 PM 27.0119 -80.6781 203° Southwest 397 457 39,000 -600 Descending Miami Center
Sun 12:48:18 PM 26.9106 -80.7236 202° Southwest 397 457 39,000 -800 Level Miami Center
Sun 12:49:18 PM 26.8092 -80.7714 203° Southwest 397 457 37,400 -1,900 Descending Miami Center
Sun 12:50:18 PM 26.7033 -80.8214 203° Southwest 392 451 35,200 -2,100 Descending Miami Center
Sun 12:51:18 PM 26.6039 -80.8667 202° Southwest 387 445 33,200 -1,950 Descending Miami Center
Sun 12:52:18 PM 26.5022 -80.9167 204° Southwest 393 452 31,300 -1,900 Descending Miami Center
Sun 12:53:18 PM 26.4031 -80.9550 199° South 415 478 29,400 -2,050 Descending Miami Center
Sun 12:54:18 PM 26.2850 -80.9950 197° South 408 470 27,200 -2,100 Descending Miami Center
Sun 12:55:18 PM 26.1817 -81.0353 199° South 402 463 25,200 -1,300 Descending Miami Center
Sun 12:56:18 PM 26.0844 -81.0667 196° South 397 457 24,600 -1,050 Descending Miami Center
Sun 12:57:18 PM 25.9853 -81.1094 201° Southwest 385 443 23,100 -1,500 Descending Miami Center
Sun 12:58:18 PM 25.8897 -81.1592 205° Southwest 385 443 21,600 -1,050 Descending Miami Center
Sun 12:59:18 PM 25.7967 -81.2042 204° Southwest 379 436 21,000 -300 Descending Miami Center
Sun 01:00:18 PM 25.7011 -81.2514 204° Southwest 374 430 21,000  Level Miami Center
Sun 01:01:18 PM 25.6097 -81.3011 206° Southwest 374 430 21,000 -500 Level Miami Center
Sun 01:02:18 PM 25.5144 -81.3458 203° Southwest 369 425 20,000 -1,250 Descending Miami Center
Sun 01:03:18 PM 25.4256 -81.3886 203° Southwest 361 415 18,500 -1,000 Descending Miami Center
Sun 01:04:18 PM 25.3492 -81.4272 205° Southwest 349 402 18,000 -1,050 Descending Miami Center
Sun 01:05:18 PM 25.2686 -81.4678 204° Southwest 335 386 16,400 -1,150 Descending Miami Center
Sun 01:06:18 PM 25.1817 -81.5081 203° Southwest 330 380 15,700 -1,300 Descending Miami Center
Sun 01:07:18 PM 25.0967 -81.5508 205° Southwest 330 380 13,800 -1,900 Descending Miami Center
Sun 01:08:18 PM 25.0203 -81.5936 207° Southwest 324 373 11,900 -1,750 Descending Miami Center
Sun 01:09:18 PM 24.9578 -81.6531 221° Southwest 314 361 10,300 -1,600 Descending Miami Center
Sun 01:10:18 PM 24.9017 -81.7081 222° Southwest 289 333 8,700 -1,700 Descending Miami Center
Sun 01:11:18 PM 24.8456 -81.7631 222° Southwest 284 327 6,900 -1,800 Descending Miami Center
Sun 01:12:18 PM 24.7936 -81.8136 221° Southwest 267 307 5,100 -1,850 Descending Miami Center
Sun 01:13:18 PM 24.7219 -81.8358 196° South 256 295 3,200 -1,650 Descending Miami Center
Sun 01:14:18 PM 24.6589 -81.8494 191° South 240 276 1,800 -850 Descending Miami Center
Sun 01:15:18 PM 24.6092 -81.8358 166° South 210 242 1,500 -300 Descending Miami Center
Sun 01:17:00 PM 24.5561 -81.7596 156° South  Level Estimated
Sun 01:24:00 PM 24.5561 -81.7596 156° South  Level Estimated
Sun 01:25:00 PM 24.5561 -81.7596 156° South  Level Estimated
Sun 01:26:00 PM 24.5561 -81.7596 156° South  Level Estimated

Login

Don't have an account? Register now (free) for customized features, flight alerts, and more!